Terminal Aerodrome Forecast
Issued by NWS

Home | Current Version | Previous Version | Text Only | Print | Product List | Glossary On
Versions: 1 2 3 4 5 6 7 8 9 10 11 12 13 14 15 16
000
FTAK31 PANC 302328
TAFAIL
TAF
PAIL 302328Z 3100/3124 10012G20KT P6SM -RA OVC030
      TEMPO 3100/3102 OVC035
     FM310200 09010G18KT P6SM BKN045
     FM310600 08007KT P6SM SCT070 BKN120=

USA.gov is the U.S. government's official web portal to all federal, state and local government web resources and services.